Time;durP1;ratioP1;P1;durP2;ratioP2;P2;SDS_P1;SDS_P2;PMS_P1;PMS_P2;Temp;Humidity;BMP_temperature;BMP_pressure;BME280_temperature;BME280_humidity;BME280_pressure;Samples;Min_cycle;Max_cycle;Signal;HPM_P1;HPM_P2
2023/08/13 00:00:06;;;;;;;2.63;1.38;;;;;;;28.12;42.45;98983.50;2081764;28;20076;-48
2023/08/13 00:01:07;;;;;;;1.88;1.50;;;;;;;28.07;42.40;98983.44;2080515;28;20037;-50
2023/08/13 00:02:09;;;;;;;1.42;1.30;;;;;;;28.04;42.52;98983.97;2082835;28;20552;-51
2023/08/13 00:03:11;;;;;;;1.55;1.30;;;;;;;28.05;42.45;98980.13;2081496;28;20064;-49
2023/08/13 00:04:13;;;;;;;1.50;1.33;;;;;;;28.02;42.46;98981.47;2082462;28;20049;-48
2023/08/13 00:05:14;;;;;;;1.30;1.15;;;;;;;28.06;42.57;98976.34;2083169;28;20072;-50
2023/08/13 00:06:15;;;;;;;3.42;1.58;;;;;;;28.10;42.62;98974.75;2084118;28;20049;-52
2023/08/13 00:07:17;;;;;;;3.88;1.40;;;;;;;28.09;42.59;98973.09;2077991;28;20542;-52
2023/08/13 00:08:18;;;;;;;2.03;1.30;;;;;;;28.03;42.60;98972.22;2080795;28;20045;-52
2023/08/13 00:09:19;;;;;;;2.17;1.20;;;;;;;28.04;42.72;98975.78;2082142;28;20080;-49
2023/08/13 00:10:21;;;;;;;1.30;1.20;;;;;;;28.08;42.57;98982.34;2082162;28;20056;-53
2023/08/13 00:11:23;;;;;;;2.47;1.10;;;;;;;28.09;42.68;98980.47;2082593;28;20527;-49
2023/08/13 00:12:24;;;;;;;1.60;1.20;;;;;;;28.04;42.65;98983.97;2083655;28;20106;-48
2023/08/13 00:13:25;;;;;;;1.80;1.55;;;;;;;27.99;42.61;98981.16;2082678;28;20080;-48
2023/08/13 00:14:27;;;;;;;1.92;1.60;;;;;;;27.99;42.52;98984.72;2083793;28;20064;-50
2023/08/13 00:15:28;;;;;;;1.75;1.60;;;;;;;28.01;42.37;98981.75;2081367;28;20487;-52
2023/08/13 00:16:30;;;;;;;1.67;1.42;;;;;;;28.05;42.56;98988.31;2081446;28;20053;-48
2023/08/13 00:17:30;;;;;;;1.67;1.58;;;;;;;28.05;42.33;98991.03;2080614;28;20049;-57
2023/08/13 00:18:34;;;;;;;1.20;1.10;;;;;;;28.09;42.54;98991.38;2081785;28;20136;-48
2023/08/13 00:19:35;;;;;;;2.10;1.33;;;;;;;28.04;42.63;98989.41;2083554;28;20053;-49
2023/08/13 00:20:36;;;;;;;1.60;1.50;;;;;;;28.05;42.54;98985.59;2079111;28;20136;-51
2023/08/13 00:21:37;;;;;;;2.25;1.85;;;;;;;28.07;42.44;98983.44;2080362;28;20053;-48
2023/08/13 00:22:39;;;;;;;1.83;1.45;;;;;;;28.10;42.53;98982.91;2083490;28;20057;-50
2023/08/13 00:23:40;;;;;;;2.65;1.40;;;;;;;28.09;42.42;98986.75;2081264;28;20907;-48
2023/08/13 00:24:42;;;;;;;1.90;1.33;;;;;;;28.13;42.25;98984.31;2079460;28;20495;-48
2023/08/13 00:25:42;;;;;;;1.80;1.45;;;;;;;28.15;42.13;98984.88;2081561;28;20144;-49
2023/08/13 00:26:44;;;;;;;2.22;1.25;;;;;;;28.17;42.31;98983.53;2082232;28;20052;-49
2023/08/13 00:27:45;;;;;;;3.85;1.38;;;;;;;28.16;42.46;98981.88;2081548;28;20273;-48
2023/08/13 00:28:48;;;;;;;1.90;1.38;;;;;;;28.15;42.38;98980.25;2082579;28;20114;-49
2023/08/13 00:29:49;;;;;;;1.95;1.50;;;;;;;28.11;42.32;98984.59;2082294;28;20077;-48
2023/08/13 00:30:50;;;;;;;4.75;1.65;;;;;;;28.07;42.65;98980.72;2082251;28;21869;-50
2023/08/13 00:31:55;;;;;;;2.03;1.05;;;;;;;28.03;42.92;98985.88;2083820;28;20048;-49
2023/08/13 00:32:55;;;;;;;0.95;0.90;;;;;;;28.01;43.03;98982.56;2081718;28;20139;-48
2023/08/13 00:33:59;;;;;;;1.60;1.30;;;;;;;28.01;42.78;98979.03;2080890;28;20056;-48
2023/08/13 00:35:02;;;;;;;2.30;1.27;;;;;;;27.98;43.11;98983.09;2077960;28;20090;-48
2023/08/13 00:36:04;;;;;;;3.90;1.27;;;;;;;27.96;42.80;98978.97;2079290;28;20060;-50
2023/08/13 00:37:05;;;;;;;1.30;1.20;;;;;;;27.99;42.89;98976.53;2084280;28;20128;-48
2023/08/13 00:38:08;;;;;;;1.52;1.33;;;;;;;28.00;42.80;98974.63;2081918;28;20049;-48
2023/08/13 00:39:09;;;;;;;1.60;1.50;;;;;;;27.97;42.67;98984.16;2081256;28;20423;-51
2023/08/13 00:40:12;;;;;;;2.28;1.33;;;;;;;27.97;42.47;98980.59;2081803;28;20052;-48
2023/08/13 00:41:12;;;;;;;2.22;1.30;;;;;;;27.99;42.60;98976.53;2077314;28;20048;-49
2023/08/13 00:42:14;;;;;;;1.65;1.17;;;;;;;27.97;42.76;98981.44;2080792;28;20044;-49
2023/08/13 00:43:15;;;;;;;2.42;1.10;;;;;;;27.94;42.55;98979.22;2082171;28;20041;-52
2023/08/13 00:44:17;;;;;;;3.15;1.40;;;;;;;27.95;42.64;98985.50;2082741;28;20422;-48
2023/08/13 00:45:18;;;;;;;1.55;1.40;;;;;;;27.96;42.54;98978.97;2080750;28;20045;-50
2023/08/13 00:46:20;;;;;;;1.75;1.40;;;;;;;28.02;42.70;98980.66;2081242;28;20186;-48
2023/08/13 00:47:20;;;;;;;1.25;1.10;;;;;;;28.06;42.37;98979.91;2077169;28;20056;-50
2023/08/13 00:48:22;;;;;;;2.40;1.30;;;;;;;28.03;42.28;98977.69;2077410;28;20328;-50
2023/08/13 00:49:25;;;;;;;2.33;1.27;;;;;;;28.07;42.33;98977.97;2080334;28;20068;-52
2023/08/13 00:50:27;;;;;;;1.83;1.23;;;;;;;28.07;42.56;98970.63;2081858;28;20052;-53
2023/08/13 00:51:29;;;;;;;2.35;1.50;;;;;;;28.00;42.73;98975.47;2083151;28;20041;-51
2023/08/13 00:52:31;;;;;;;2.65;1.42;;;;;;;28.02;42.68;98973.28;2081151;28;20052;-51
2023/08/13 00:53:38;;;;;;;1.17;1.08;;;;;;;28.02;42.68;98975.19;2080359;28;20073;-52
2023/08/13 00:54:40;;;;;;;2.17;1.27;;;;;;;28.01;42.67;98973.56;2080646;28;20522;-49
2023/08/13 00:55:42;;;;;;;1.13;1.02;;;;;;;28.04;42.36;98970.31;2080589;28;20183;-48
2023/08/13 00:56:47;;;;;;;2.28;1.50;;;;;;;28.09;42.28;98975.84;2081621;28;20073;-48
2023/08/13 00:57:48;;;;;;;2.97;1.17;;;;;;;28.07;42.42;98975.25;2077597;28;20064;-50
2023/08/13 00:58:50;;;;;;;1.30;1.20;;;;;;;28.06;42.34;98979.91;2079881;28;20119;-48
2023/08/13 00:59:52;;;;;;;2.70;1.60;;;;;;;27.99;42.47;98978.44;2081735;28;20060;-51
2023/08/13 01:00:53;;;;;;;1.92;1.42;;;;;;;27.97;42.55;98986.06;2082860;28;20056;-47
2023/08/13 01:01:55;;;;;;;2.55;2.10;;;;;;;27.97;42.68;98984.16;2079860;28;20126;-47
2023/08/13 01:02:56;;;;;;;1.15;1.05;;;;;;;28.00;42.47;98977.34;2081621;28;20053;-48
2023/08/13 01:03:58;;;;;;;2.30;1.30;;;;;;;28.06;42.35;98974.44;2080802;28;20049;-48
2023/08/13 01:05:01;;;;;;;3.58;1.20;;;;;;;28.06;42.21;98976.34;2079049;28;20116;-49
2023/08/13 01:06:09;;;;;;;2.53;1.50;;;;;;;28.02;42.38;98975.19;2081633;28;20045;-47
2023/08/13 01:07:18;;;;;;;1.83;1.63;;;;;;;28.02;42.54;98980.66;2082330;28;20411;-51
2023/08/13 01:08:27;;;;;;;1.80;1.30;;;;;;;27.97;42.71;98969.69;2080864;28;20789;-50
2023/08/13 01:09:37;;;;;;;1.88;1.48;;;;;;;27.95;42.41;98980.06;2080615;28;20048;-51
2023/08/13 01:10:45;;;;;;;1.48;1.38;;;;;;;27.92;42.64;98978.66;2082130;28;20507;-47
2023/08/13 01:11:56;;;;;;;1.48;1.27;;;;;;;27.98;42.56;98985.00;2083501;28;20049;-49
2023/08/13 01:13:04;;;;;;;2.17;1.40;;;;;;;27.97;42.40;98973.28;2082670;28;20057;-50
2023/08/13 01:14:11;;;;;;;1.05;1.05;;;;;;;27.97;42.24;98977.88;2082124;28;20049;-48
2023/08/13 01:15:16;;;;;;;1.55;1.10;;;;;;;27.95;42.50;98969.16;2078448;28;20044;-47
2023/08/13 01:16:20;;;;;;;1.15;1.02;;;;;;;27.97;42.16;98972.41;2080336;28;20423;-51
2023/08/13 01:17:23;;;;;;;1.92;1.23;;;;;;;28.03;42.43;98982.31;2080744;28;20227;-49
2023/08/13 01:18:24;;;;;;;2.28;1.65;;;;;;;28.03;42.30;98976.88;2082257;28;20045;-47
2023/08/13 01:19:26;;;;;;;1.88;1.50;;;;;;;28.03;42.09;98976.88;2080917;28;20041;-50
2023/08/13 01:20:31;;;;;;;1.67;1.52;;;;;;;28.00;42.34;98982.81;2080764;28;20071;-50
2023/08/13 01:21:33;;;;;;;1.90;1.60;;;;;;;27.93;42.29;98971.31;2077195;28;20480;-48
2023/08/13 01:22:38;;;;;;;1.55;1.27;;;;;;;27.94;42.39;98981.13;2082226;28;20048;-50
2023/08/13 01:23:40;;;;;;;2.05;1.65;;;;;;;27.94;42.30;98979.22;2081997;28;20099;-51
2023/08/13 01:24:40;;;;;;;1.65;1.30;;;;;;;27.96;42.19;98981.69;2079739;28;20049;-50
2023/08/13 01:25:49;;;;;;;2.17;1.73;;;;;;;27.90;42.20;98978.09;2081775;28;20144;-50
2023/08/13 01:26:59;;;;;;;1.70;1.48;;;;;;;27.92;42.20;98970.47;2080911;28;20045;-50
2023/08/13 01:28:09;;;;;;;2.17;1.65;;;;;;;27.98;42.25;98968.63;2079816;28;20084;-51
2023/08/13 01:29:18;;;;;;;2.95;1.55;;;;;;;27.94;42.25;98970.22;2080676;28;20048;-49
2023/08/13 01:30:25;;;;;;;1.45;1.20;;;;;;;27.93;42.36;98965.84;2079969;28;20055;-50
2023/08/13 01:31:29;;;;;;;1.30;1.10;;;;;;;27.95;42.47;98963.69;2081236;28;20041;-51
2023/08/13 01:32:37;;;;;;;1.27;1.17;;;;;;;27.92;42.51;98966.94;2078571;28;20047;-49
2023/08/13 01:33:41;;;;;;;1.50;1.40;;;;;;;27.90;42.70;98963.63;2080397;28;20045;-51
2023/08/13 01:34:43;;;;;;;2.17;1.48;;;;;;;27.91;42.56;98962.53;2080366;28;20495;-48
2023/08/13 01:35:46;;;;;;;1.33;1.05;;;;;;;27.94;42.57;98967.47;2080460;28;20048;-48
2023/08/13 01:36:47;;;;;;;2.90;1.33;;;;;;;27.93;42.44;98955.75;2079490;28;20052;-52
2023/08/13 01:37:52;;;;;;;2.28;1.95;;;;;;;27.92;42.46;98964.22;2079313;28;20053;-50
2023/08/13 01:38:53;;;;;;;1.40;1.30;;;;;;;27.92;42.63;98958.75;2080327;28;20064;-48
2023/08/13 01:39:55;;;;;;;2.47;1.17;;;;;;;27.89;42.58;98962.81;2078162;28;20526;-48
2023/08/13 01:40:57;;;;;;;2.15;1.40;;;;;;;27.92;42.27;98956.03;2079898;28;20576;-48
2023/08/13 01:41:58;;;;;;;1.77;1.23;;;;;;;27.97;42.39;98958.78;2080893;28;20567;-49
2023/08/13 01:43:00;;;;;;;1.45;1.30;;;;;;;27.99;42.48;98962.09;2080066;28;20051;-49
2023/08/13 01:44:00;;;;;;;1.45;1.13;;;;;;;27.93;42.30;98958.50;2081436;28;20268;-50
2023/08/13 01:45:02;;;;;;;2.58;1.70;;;;;;;27.97;42.38;98958.78;2079948;28;20580;-50
2023/08/13 01:46:03;;;;;;;3.75;1.40;;;;;;;27.95;42.25;98950.88;2081645;28;20053;-49
2023/08/13 01:47:05;;;;;;;1.50;1.35;;;;;;;27.93;42.19;98954.94;2079984;28;20059;-51
2023/08/13 01:48:07;;;;;;;2.83;1.45;;;;;;;27.96;42.25;98951.69;2079450;28;20048;-52
2023/08/13 01:49:09;;;;;;;2.95;1.60;;;;;;;27.99;42.31;98954.72;2073105;28;20053;-49
2023/08/13 01:50:10;;;;;;;2.25;1.40;;;;;;;27.98;42.18;98953.09;2078072;28;20052;-50
2023/08/13 01:51:12;;;;;;;0.85;0.85;;;;;;;28.01;42.07;98951.75;2081204;28;20530;-49
2023/08/13 01:52:13;;;;;;;1.42;1.00;;;;;;;27.99;42.24;98952.00;2082209;28;20052;-51
2023/08/13 01:53:16;;;;;;;1.88;0.98;;;;;;;27.96;41.97;98951.69;2079608;28;20041;-52
2023/08/13 01:54:17;;;;;;;1.88;0.90;;;;;;;27.99;42.05;98954.72;2077956;28;20077;-51
2023/08/13 01:55:18;;;;;;;2.08;1.50;;;;;;;28.02;42.03;98947.94;2077029;28;20048;-51
2023/08/13 01:56:19;;;;;;;1.23;1.10;;;;;;;28.00;42.10;98950.09;2076010;28;20049;-51
2023/08/13 01:57:20;;;;;;;1.17;1.02;;;;;;;27.96;42.10;98954.44;2080439;28;20526;-47
2023/08/13 01:58:22;;;;;;;1.20;0.98;;;;;;;27.99;42.33;98957.44;2082439;28;20049;-49
2023/08/13 01:59:23;;;;;;;1.20;1.10;;;;;;;27.94;42.18;98946.50;2081158;28;20041;-51
2023/08/13 02:00:25;;;;;;;3.13;1.00;;;;;;;27.91;42.54;98944.28;2080708;28;20041;-47
2023/08/13 02:01:26;;;;;;;1.65;1.20;;;;;;;27.92;42.21;98947.84;2080624;28;20427;-51
2023/08/13 02:02:28;;;;;;;3.40;1.50;;;;;;;27.92;42.38;98950.59;2079523;28;20053;-51
2023/08/13 02:03:29;;;;;;;1.55;1.33;;;;;;;27.92;42.19;98951.41;2080022;28;20321;-51
2023/08/13 02:04:30;;;;;;;2.28;1.33;;;;;;;27.91;42.21;98951.66;2080666;28;20108;-53
2023/08/13 02:05:31;;;;;;;18.20;1.48;;;;;;;27.88;42.09;98950.25;2079297;28;20049;-52
2023/08/13 02:06:35;;;;;;;1.40;1.30;;;;;;;27.88;42.23;98952.97;2080246;28;20175;-48
2023/08/13 02:07:36;;;;;;;4.68;0.95;;;;;;;27.91;42.09;98948.91;2082942;28;20060;-51
2023/08/13 02:08:39;;;;;;;2.15;1.33;;;;;;;27.91;42.35;98955.19;2080801;28;20081;-52
2023/08/13 02:09:41;;;;;;;1.08;0.98;;;;;;;27.93;42.01;98954.94;2082431;28;20069;-52
2023/08/13 02:10:41;;;;;;;2.42;1.25;;;;;;;27.92;42.00;98951.41;2080470;28;20045;-50
2023/08/13 02:11:43;;;;;;;1.20;1.10;;;;;;;27.88;42.26;98946.72;2074469;28;20055;-47
2023/08/13 02:12:44;;;;;;;1.60;1.10;;;;;;;27.88;42.38;98952.16;2079320;28;20045;-50
2023/08/13 02:13:46;;;;;;;2.83;1.02;;;;;;;27.89;42.19;98953.78;2077230;28;20059;-48
2023/08/13 02:14:47;;;;;;;1.30;0.90;;;;;;;27.85;42.27;98957.03;2079541;28;20218;-51
2023/08/13 02:15:49;;;;;;;2.17;1.45;;;;;;;27.85;42.19;98957.03;2080303;28;20056;-49
2023/08/13 02:16:50;;;;;;;1.80;1.33;;;;;;;27.82;42.12;98949.38;2080278;28;20080;-48
2023/08/13 02:17:52;;;;;;;2.03;1.38;;;;;;;27.87;41.96;98958.72;2079806;28;20543;-49
2023/08/13 02:18:53;;;;;;;1.35;1.23;;;;;;;27.88;42.37;98958.44;2080878;28;20057;-48
2023/08/13 02:19:55;;;;;;;1.00;0.90;;;;;;;27.87;42.27;98953.25;2079094;28;21565;-48
2023/08/13 02:20:56;;;;;;;2.65;1.50;;;;;;;27.87;42.40;98951.34;2072399;28;20061;-51
2023/08/13 02:21:58;;;;;;;2.17;1.45;;;;;;;27.87;42.26;98951.34;2071180;28;20060;-47
2023/08/13 02:22:58;;;;;;;1.67;1.25;;;;;;;27.84;42.18;98957.31;2069599;28;20407;-49
2023/08/13 02:24:02;;;;;;;1.95;1.50;;;;;;;27.89;42.19;98956.53;2069840;28;20676;-49
2023/08/13 02:25:03;;;;;;;1.73;1.30;;;;;;;27.84;42.40;98952.69;2071209;28;20469;-48
2023/08/13 02:26:05;;;;;;;1.63;1.20;;;;;;;27.87;42.10;98950.53;2072439;28;20538;-48
2023/08/13 02:27:05;;;;;;;1.30;1.20;;;;;;;27.87;42.18;98954.06;2070021;28;20053;-47
2023/08/13 02:28:07;;;;;;;1.95;1.23;;;;;;;27.86;42.07;98952.44;2069922;28;20069;-50
2023/08/13 02:29:08;;;;;;;1.30;0.95;;;;;;;27.87;42.31;98951.34;2069600;28;20084;-48
2023/08/13 02:30:11;;;;;;;1.85;1.25;;;;;;;27.85;41.98;98957.03;2071144;28;20415;-52
2023/08/13 02:31:12;;;;;;;1.52;1.42;;;;;;;27.82;42.17;98954.84;2070948;28;20519;-47
2023/08/13 02:32:14;;;;;;;1.50;1.23;;;;;;;27.82;42.19;98945.84;2071465;28;20045;-50
2023/08/13 02:33:14;;;;;;;1.42;1.33;;;;;;;27.81;42.35;98953.19;2073355;28;20365;-51
2023/08/13 02:34:16;;;;;;;1.45;1.20;;;;;;;27.82;41.91;98954.00;2072708;28;20467;-47
2023/08/13 02:35:17;;;;;;;1.63;1.30;;;;;;;27.82;42.48;98954.84;2071784;28;20389;-49
2023/08/13 02:36:19;;;;;;;1.65;1.20;;;;;;;27.84;42.18;98947.22;2073817;28;20427;-52
2023/08/13 02:37:20;;;;;;;1.27;1.17;;;;;;;27.85;41.92;98948.03;2072058;28;20084;-49
2023/08/13 02:38:22;;;;;;;2.55;1.45;;;;;;;27.88;42.15;98960.34;2070696;28;20060;-50
2023/08/13 02:39:24;;;;;;;1.38;1.27;;;;;;;27.84;41.90;98947.22;2072171;28;20487;-50
2023/08/13 02:40:26;;;;;;;1.75;1.20;;;;;;;27.84;42.13;98949.13;2072787;28;21812;-47
2023/08/13 02:41:26;;;;;;;2.72;1.30;;;;;;;27.84;41.99;98952.69;2069429;28;20514;-49
2023/08/13 02:42:28;;;;;;;2.10;1.60;;;;;;;27.88;42.03;98944.81;2079413;28;20048;-51
2023/08/13 02:43:33;;;;;;;2.05;1.30;;;;;;;27.89;42.06;98949.19;2078172;28;20037;-50
2023/08/13 02:44:34;;;;;;;2.17;1.20;;;;;;;27.88;41.54;98946.72;2071706;28;20094;-51
2023/08/13 02:45:35;;;;;;;1.98;1.38;;;;;;;27.84;41.75;98944.50;2071699;28;20049;-48
2023/08/13 02:46:37;;;;;;;3.00;1.33;;;;;;;27.87;41.64;98951.34;2075309;28;20979;-49
2023/08/13 02:47:38;;;;;;;1.02;0.93;;;;;;;27.87;42.12;98945.06;2070977;28;20056;-47
2023/08/13 02:48:40;;;;;;;1.30;1.00;;;;;;;27.83;41.84;98945.59;2071382;28;20492;-51
2023/08/13 02:49:40;;;;;;;1.83;1.35;;;;;;;27.81;41.93;98947.75;2072125;28;20056;-47
2023/08/13 02:50:42;;;;;;;1.42;0.90;;;;;;;27.83;42.19;98945.59;2079105;28;20053;-50
2023/08/13 02:51:43;;;;;;;2.55;1.23;;;;;;;27.83;42.09;98942.88;2071118;28;20138;-52
2023/08/13 02:52:45;;;;;;;2.35;1.13;;;;;;;27.82;41.92;98941.19;2070284;28;20055;-47
2023/08/13 02:53:46;;;;;;;1.90;1.80;;;;;;;27.79;42.10;98943.59;2071117;28;20065;-47
2023/08/13 02:54:50;;;;;;;2.40;1.10;;;;;;;27.83;41.98;98937.41;2072431;28;20167;-49
2023/08/13 02:55:51;;;;;;;0.95;0.95;;;;;;;27.82;41.94;98937.66;2071576;28;20566;-50
2023/08/13 02:56:53;;;;;;;1.88;1.13;;;;;;;27.87;41.93;98939.63;2073404;28;20125;-49
2023/08/13 02:57:54;;;;;;;3.17;1.42;;;;;;;27.86;41.66;98938.81;2071074;28;20114;-49
2023/08/13 02:58:56;;;;;;;1.52;1.20;;;;;;;27.89;41.73;98938.28;2069178;28;20092;-51
2023/08/13 02:59:57;;;;;;;2.63;1.40;;;;;;;27.90;41.78;98939.09;2068480;28;20057;-48
2023/08/13 03:00:59;;;;;;;3.13;0.90;;;;;;;27.87;41.60;98939.63;2075349;28;20582;-47
2023/08/13 03:01:59;;;;;;;1.27;0.82;;;;;;;27.88;41.78;98941.25;2079949;28;20048;-47
2023/08/13 03:03:02;;;;;;;1.02;1.00;;;;;;;27.85;41.91;98943.41;2081505;28;20053;-52
2023/08/13 03:04:03;;;;;;;1.08;0.98;;;;;;;27.80;41.75;98943.38;2080010;28;20500;-49
2023/08/13 03:05:05;;;;;;;1.88;1.10;;;;;;;27.85;41.55;98942.59;2079504;28;20067;-48
2023/08/13 03:06:06;;;;;;;1.60;1.38;;;;;;;27.89;41.89;98942.91;2078235;28;20076;-48
2023/08/13 03:07:08;;;;;;;2.13;1.20;;;;;;;27.78;41.83;98950.13;2078770;28;20491;-50
2023/08/13 03:08:08;;;;;;;2.35;1.50;;;;;;;27.79;41.91;98941.72;2079237;28;20136;-50
2023/08/13 03:09:18;;;;;;;1.38;1.02;;;;;;;27.81;42.21;98942.28;2080346;28;20041;-47
2023/08/13 03:10:21;;;;;;;1.48;1.15;;;;;;;27.86;41.96;98941.53;2080919;28;20565;-48
2023/08/13 03:11:23;;;;;;;1.83;1.13;;;;;;;27.87;41.80;98945.06;2082055;28;20057;-51
2023/08/13 03:12:24;;;;;;;1.60;1.35;;;;;;;27.88;41.58;98944.81;2076398;28;20048;-49
2023/08/13 03:13:25;;;;;;;3.15;1.55;;;;;;;27.89;41.73;98943.75;2081301;28;20147;-51
2023/08/13 03:14:26;;;;;;;1.48;0.98;;;;;;;27.89;41.90;98940.16;2081358;28;20411;-50
2023/08/13 03:15:28;;;;;;;1.55;1.05;;;;;;;27.85;42.02;98940.69;2078678;28;20041;-50
2023/08/13 03:16:29;;;;;;;2.40;1.10;;;;;;;27.84;41.98;98939.06;2080288;28;20052;-49
2023/08/13 03:17:31;;;;;;;1.30;1.20;;;;;;;27.78;42.16;98942.78;2076746;28;20093;-47
2023/08/13 03:18:32;;;;;;;1.42;1.10;;;;;;;27.83;41.83;98940.16;2077785;28;20053;-48
2023/08/13 03:19:34;;;;;;;1.77;1.20;;;;;;;27.87;42.21;98932.25;2081269;28;20500;-50
2023/08/13 03:20:35;;;;;;;1.30;1.13;;;;;;;27.85;42.03;98935.22;2081124;28;20109;-52
2023/08/13 03:21:37;;;;;;;1.60;1.35;;;;;;;27.83;42.18;98936.56;2079739;28;20049;-48
2023/08/13 03:22:37;;;;;;;1.50;1.10;;;;;;;27.83;41.95;98937.41;2080416;28;20045;-50
2023/08/13 03:23:39;;;;;;;2.90;1.30;;;;;;;27.76;42.25;98933.22;2077118;28;21108;-48
2023/08/13 03:24:40;;;;;;;1.35;1.25;;;;;;;27.78;42.45;98936.50;2078066;28;20057;-47
2023/08/13 03:25:43;;;;;;;1.55;1.15;;;;;;;27.83;42.61;98937.41;2080846;28;20492;-51
2023/08/13 03:26:44;;;;;;;1.63;1.20;;;;;;;27.82;42.30;98932.22;2078709;28;20068;-50
2023/08/13 03:27:47;;;;;;;1.33;1.23;;;;;;;27.85;42.01;98942.59;2076210;28;20503;-49
2023/08/13 03:28:48;;;;;;;1.58;1.20;;;;;;;27.83;42.22;98940.16;2079107;28;20131;-48
2023/08/13 03:29:50;;;;;;;1.35;1.00;;;;;;;27.82;42.06;98933.03;2079914;28;20128;-48
2023/08/13 03:30:57;;;;;;;1.60;1.50;;;;;;;27.81;42.19;98934.13;2078731;28;20507;-49
2023/08/13 03:32:00;;;;;;;2.25;1.70;;;;;;;27.82;42.47;98937.66;2080795;28;20573;-47
2023/08/13 03:33:00;;;;;;;2.97;1.23;;;;;;;27.82;42.17;98938.47;2076915;28;20173;-47
2023/08/13 03:34:02;;;;;;;3.35;1.20;;;;;;;27.79;42.26;98940.88;2079579;28;20053;-47
2023/08/13 03:35:04;;;;;;;1.27;1.17;;;;;;;27.75;42.28;98942.44;2080352;28;20416;-47
2023/08/13 03:36:06;;;;;;;2.22;1.42;;;;;;;27.77;41.99;98940.28;2080962;28;20048;-47
2023/08/13 03:37:07;;;;;;;4.25;1.48;;;;;;;27.74;42.11;98940.81;2079226;28;20057;-48
2023/08/13 03:38:09;;;;;;;2.25;1.77;;;;;;;27.79;42.02;98939.00;2079225;28;20776;-50
2023/08/13 03:39:10;;;;;;;1.65;1.08;;;;;;;27.77;42.22;98948.47;2077506;28;20041;-50
2023/08/13 03:40:13;;;;;;;1.58;1.10;;;;;;;27.75;42.34;98940.56;2079706;28;20045;-48
2023/08/13 03:41:16;;;;;;;2.25;1.52;;;;;;;27.77;42.21;98941.13;2081094;28;20045;-48
2023/08/13 03:42:17;;;;;;;1.75;1.27;;;;;;;27.78;42.08;98945.50;2079404;28;20127;-48
2023/08/13 03:43:18;;;;;;;2.22;1.20;;;;;;;27.79;42.23;98941.72;2077723;28;20075;-51
2023/08/13 03:44:20;;;;;;;2.30;1.40;;;;;;;27.80;41.96;98937.09;2078644;28;20058;-48
2023/08/13 03:45:21;;;;;;;1.20;1.05;;;;;;;27.77;42.01;98940.28;2079135;28;20768;-51
2023/08/13 03:46:23;;;;;;;1.73;1.45;;;;;;;27.81;42.14;98927.84;2077451;28;20053;-51
2023/08/13 03:47:23;;;;;;;1.83;1.30;;;;;;;27.74;41.78;98930.72;2078748;28;20083;-48
2023/08/13 03:48:25;;;;;;;1.92;1.20;;;;;;;27.71;42.38;98935.88;2081312;28;20053;-49
2023/08/13 03:49:26;;;;;;;1.25;1.15;;;;;;;27.70;42.26;98935.06;2079145;28;20526;-51
2023/08/13 03:50:28;;;;;;;2.40;1.70;;;;;;;27.71;42.07;98930.44;2076257;28;20060;-51
2023/08/13 03:51:29;;;;;;;1.17;0.80;;;;;;;27.74;42.15;98925.28;2081900;28;20507;-51
2023/08/13 03:52:30;;;;;;;1.52;1.20;;;;;;;27.73;42.24;98933.72;2076947;28;20045;-52
2023/08/13 03:53:31;;;;;;;1.65;1.15;;;;;;;27.72;42.39;98937.50;2077245;28;20064;-50
2023/08/13 03:54:33;;;;;;;1.27;0.90;;;;;;;27.74;42.00;98938.91;2080110;28;20535;-52
2023/08/13 03:55:34;;;;;;;1.20;1.08;;;;;;;27.78;41.66;98937.31;2078081;28;20184;-52
2023/08/13 03:56:37;;;;;;;1.52;1.05;;;;;;;27.80;41.87;98939.81;2080035;28;20060;-48
2023/08/13 03:57:38;;;;;;;2.70;1.25;;;;;;;27.79;41.69;98941.72;2077689;28;20152;-48
2023/08/13 03:58:40;;;;;;;1.33;1.20;;;;;;;27.82;41.69;98941.19;2079798;28;20053;-52
2023/08/13 03:59:41;;;;;;;1.35;1.25;;;;;;;27.81;41.90;98936.84;2080742;28;20046;-49
2023/08/13 04:00:43;;;;;;;1.35;1.02;;;;;;;27.78;41.74;98940.06;2078276;28;20509;-48
2023/08/13 04:01:44;;;;;;;2.70;0.98;;;;;;;27.76;42.06;98934.03;2081209;28;20587;-49
2023/08/13 04:02:49;;;;;;;1.35;1.05;;;;;;;27.79;41.91;98940.88;2080501;28;20037;-52
2023/08/13 04:03:51;;;;;;;2.13;1.23;;;;;;;27.70;41.97;98936.97;2076328;28;22610;-48
2023/08/13 04:04:53;;;;;;;2.70;1.40;;;;;;;27.72;41.76;98940.25;2070383;28;20458;-48
2023/08/13 04:05:53;;;;;;;1.73;1.13;;;;;;;27.74;41.76;98941.63;2074791;28;20052;-49
2023/08/13 04:06:55;;;;;;;1.90;1.02;;;;;;;27.76;41.96;98944.94;2080411;28;20411;-48
2023/08/13 04:07:56;;;;;;;2.75;1.33;;;;;;;27.78;41.64;98942.78;2079159;28;20144;-47
2023/08/13 04:08:58;;;;;;;1.20;0.93;;;;;;;27.78;41.35;98936.50;2079812;28;20053;-48
2023/08/13 04:09:59;;;;;;;1.70;1.60;;;;;;;27.78;41.31;98936.50;2083130;28;20088;-51
2023/08/13 04:11:01;;;;;;;2.90;1.23;;;;;;;27.75;41.78;98937.84;2080140;28;20042;-48
2023/08/13 04:12:03;;;;;;;1.25;1.15;;;;;;;27.75;41.66;98937.84;2077341;28;20045;-49
2023/08/13 04:13:05;;;;;;;2.80;1.38;;;;;;;27.71;41.91;98939.41;2081272;28;20049;-48
2023/08/13 04:14:06;;;;;;;3.40;1.33;;;;;;;27.75;41.74;98935.13;2081648;28;20064;-48
2023/08/13 04:15:09;;;;;;;1.25;1.15;;;;;;;27.74;41.95;98927.19;2076999;28;20124;-48
2023/08/13 04:16:09;;;;;;;2.22;1.55;;;;;;;27.75;41.87;98937.00;2082938;28;20045;-49
2023/08/13 04:17:11;;;;;;;0.85;0.85;;;;;;;27.77;41.71;98934.84;2078819;28;23532;-49
2023/08/13 04:18:12;;;;;;;1.63;1.52;;;;;;;27.73;41.73;98934.53;2080520;28;20060;-51
2023/08/13 04:19:14;;;;;;;1.05;0.98;;;;;;;27.76;41.94;98927.75;2081189;28;20842;-52
2023/08/13 04:20:15;;;;;;;2.28;1.15;;;;;;;27.73;41.91;98923.66;2074121;28;20354;-51
2023/08/13 04:21:16;;;;;;;3.55;1.58;;;;;;;27.74;42.00;98932.63;2073458;28;20124;-50
2023/08/13 04:22:18;;;;;;;2.03;1.42;;;;;;;27.74;41.89;98930.72;2072336;28;20500;-51
2023/08/13 04:23:18;;;;;;;1.67;1.10;;;;;;;27.75;41.97;98932.41;2072591;28;20056;-51
2023/08/13 04:24:19;;;;;;;1.48;1.33;;;;;;;27.76;41.65;98936.75;2071829;28;20050;-50
2023/08/13 04:25:21;;;;;;;1.60;1.40;;;;;;;27.75;41.83;98928.81;2071586;28;20527;-50
2023/08/13 04:26:22;;;;;;;4.88;1.27;;;;;;;27.73;41.89;98929.09;2082123;28;20055;-48
2023/08/13 04:27:26;;;;;;;2.83;1.20;;;;;;;27.75;41.65;98926.94;2072833;28;20519;-49
2023/08/13 04:28:27;;;;;;;3.28;1.20;;;;;;;27.71;41.78;98931.25;2071178;28;20084;-50
2023/08/13 04:29:28;;;;;;;1.80;1.40;;;;;;;27.73;41.98;98929.09;2072291;28;20050;-52
2023/08/13 04:30:29;;;;;;;2.55;1.25;;;;;;;27.73;41.92;98928.28;2080199;28;20045;-50
2023/08/13 04:31:31;;;;;;;2.42;1.38;;;;;;;27.74;42.04;98930.72;2081239;28;20446;-50
2023/08/13 04:32:33;;;;;;;1.67;1.10;;;;;;;27.71;41.83;98935.88;2080860;28;20415;-48
2023/08/13 04:33:35;;;;;;;1.95;1.30;;;;;;;27.71;42.03;98939.41;2078953;28;20091;-48
2023/08/13 04:34:36;;;;;;;2.00;1.10;;;;;;;27.75;41.78;98937.00;2080080;28;20231;-51
2023/08/13 04:35:37;;;;;;;2.00;1.35;;;;;;;27.69;41.71;98938.84;2081719;28;20131;-53
2023/08/13 04:36:40;;;;;;;2.40;1.10;;;;;;;27.72;41.68;98938.38;2081557;28;20086;-50
2023/08/13 04:37:41;;;;;;;1.42;1.30;;;;;;;27.71;41.59;98944.06;2081284;28;20072;-48
2023/08/13 04:38:43;;;;;;;2.22;1.40;;;;;;;27.71;41.71;98935.88;2082124;28;20076;-49
2023/08/13 04:39:44;;;;;;;1.70;1.58;;;;;;;27.71;41.76;98936.69;2080956;28;20080;-49
2023/08/13 04:40:48;;;;;;;3.75;1.33;;;;;;;27.71;41.67;98939.41;2080316;28;20155;-51
2023/08/13 04:41:49;;;;;;;2.00;1.50;;;;;;;27.73;41.41;98940.00;2080577;28;20467;-47
2023/08/13 04:42:52;;;;;;;1.20;1.10;;;;;;;27.66;41.86;98931.19;2081296;28;20094;-52
2023/08/13 04:43:53;;;;;;;1.30;1.02;;;;;;;27.66;41.91;98938.53;2083383;28;20106;-48
2023/08/13 04:44:55;;;;;;;1.17;1.08;;;;;;;27.63;42.01;98937.16;2082120;28;20560;-49
2023/08/13 04:45:56;;;;;;;1.42;1.33;;;;;;;27.62;42.07;98940.97;2080694;28;20075;-48
2023/08/13 04:46:57;;;;;;;1.95;1.17;;;;;;;27.67;41.73;98940.22;2082200;28;20383;-49
2023/08/13 04:47:58;;;;;;;2.28;1.85;;;;;;;27.71;41.66;98938.59;2077977;28;20049;-51
2023/08/13 04:48:59;;;;;;;1.65;1.02;;;;;;;27.68;41.71;98941.84;2070674;28;20057;-53
2023/08/13 04:50:01;;;;;;;3.38;1.20;;;;;;;27.71;41.49;98944.06;2079866;28;20052;-49
2023/08/13 04:51:02;;;;;;;1.95;1.80;;;;;;;27.70;41.50;98940.50;2082775;28;20380;-48
2023/08/13 04:52:05;;;;;;;2.25;1.80;;;;;;;27.67;41.85;98948.38;2081088;28;20047;-49